createdAt,value
2022-12-08T07:19:40.382Z,81.30
2022-12-08T07:28:07.926Z,81.10
2022-12-08T07:36:29.392Z,81.22
2022-12-08T07:44:50.940Z,81.10
2022-12-08T07:53:12.797Z,81.22
2022-12-08T08:01:35.368Z,81.18
2022-12-08T08:09:57.539Z,81.45
2022-12-08T08:18:18.961Z,81.49
2022-12-08T08:26:40.560Z,81.67
2022-12-08T08:35:02.668Z,81.55
2022-12-08T08:43:34.474Z,81.75
2022-12-08T08:51:59.187Z,81.65
2022-12-08T09:00:20.896Z,81.65
2022-12-08T09:08:43.351Z,81.74
2022-12-08T09:17:07.232Z,81.97
2022-12-08T09:25:29.001Z,81.79
2022-12-08T09:33:53.319Z,81.98
2022-12-08T09:42:33.121Z,81.91
2022-12-08T09:50:56.234Z,82.06
2022-12-08T09:59:20.828Z,81.93
2022-12-08T10:08:13.824Z,81.98
2022-12-08T10:16:39.894Z,81.96
2022-12-08T10:25:32.550Z,82.12
2022-12-08T10:33:58.794Z,82.04
2022-12-08T10:42:21.412Z,81.78
2022-12-08T10:50:51.909Z,81.92
2022-12-08T10:59:18.009Z,82.01
2022-12-08T11:07:47.289Z,82.15
2022-12-08T11:16:14.314Z,82.28
2022-12-08T11:24:37.850Z,82.27
2022-12-08T11:33:22.687Z,82.06
2022-12-08T11:41:46.021Z,82.33
2022-12-08T11:50:18.330Z,82.34
2022-12-08T11:58:46.545Z,82.55
2022-12-08T12:07:40.077Z,82.35
2022-12-08T12:16:39.699Z,82.30
2022-12-08T12:25:02.160Z,82.29
2022-12-08T12:33:24.810Z,82.16
2022-12-08T12:41:56.010Z,82.40
2022-12-08T12:50:32.948Z,82.18
2022-12-08T12:58:54.567Z,82.13
2022-12-08T13:07:29.328Z,82.18
2022-12-08T13:15:56.919Z,82.10
2022-12-08T13:24:24.539Z,82.33
2022-12-08T13:41:43.815Z,82.06
2022-12-08T13:51:23.590Z,82.08
2022-12-08T13:59:23.779Z,81.94
2022-12-08T14:07:47.744Z,81.95
2022-12-08T14:16:27.964Z,81.95
2022-12-08T14:24:52.261Z,81.91
2022-12-08T14:33:16.982Z,82.11
2022-12-08T14:41:40.154Z,81.88
2022-12-08T14:50:37.991Z,81.97
2022-12-08T14:59:02.608Z,82.07
2022-12-08T15:07:30.589Z,81.97
2022-12-08T15:15:57.183Z,81.68
2022-12-08T15:24:22.168Z,81.72
2022-12-08T15:32:44.009Z,82.01
2022-12-08T15:41:09.004Z,81.88
2022-12-08T15:49:33.067Z,81.66
2022-12-08T16:24:02.238Z,81.69
2022-12-08T16:32:28.319Z,81.73
2022-12-08T16:41:08.554Z,81.65
2022-12-08T16:49:30.094Z,81.50
2022-12-08T16:57:53.039Z,81.45
2022-12-08T17:06:18.622Z,81.53
2022-12-08T17:14:40.938Z,81.53
2022-12-08T17:23:02.607Z,81.59
2022-12-08T17:31:29.392Z,81.38
2022-12-08T17:39:51.515Z,81.50
2022-12-08T17:48:13.992Z,81.28
2022-12-08T17:56:35.440Z,81.54
2022-12-08T18:04:57.005Z,81.50
2022-12-08T18:13:18.862Z,81.35
2022-12-08T18:21:41.650Z,81.42
2022-12-08T18:30:04.404Z,81.41
2022-12-08T18:38:26.361Z,81.31
2022-12-08T18:46:50.305Z,81.30
2022-12-08T18:55:12.197Z,81.27
2022-12-08T19:03:33.724Z,81.37
2022-12-08T19:11:56.241Z,81.29
2022-12-08T19:20:17.873Z,81.39
2022-12-08T19:28:40.488Z,81.49
2022-12-08T19:37:01.954Z,81.59
2022-12-08T19:45:23.658Z,81.48
2022-12-08T19:53:47.818Z,81.46
2022-12-08T20:02:10.775Z,81.62
2022-12-08T20:10:35.649Z,81.52
2022-12-08T20:18:57.371Z,81.53
2022-12-08T20:27:18.863Z,81.51
2022-12-08T20:35:40.553Z,81.34
2022-12-08T20:44:05.385Z,81.65
2022-12-08T20:52:28.303Z,81.58
2022-12-08T21:00:50.239Z,81.38
2022-12-08T21:09:12.127Z,81.36
2022-12-08T21:17:33.956Z,81.46
2022-12-08T21:25:55.893Z,81.67
2022-12-08T21:34:17.640Z,81.54
2022-12-08T21:42:45.351Z,81.51
2022-12-08T21:51:07.305Z,81.47
2022-12-08T21:59:29.330Z,81.41
2022-12-08T22:07:50.997Z,81.36
2022-12-08T22:16:15.973Z,81.20
2022-12-08T22:24:37.923Z,81.45
2022-12-08T22:32:59.371Z,81.24
2022-12-08T22:41:22.154Z,81.21
2022-12-08T22:49:44.137Z,81.45
2022-12-08T22:58:05.790Z,81.29
2022-12-08T23:06:28.880Z,81.20
2022-12-08T23:14:50.504Z,81.28
2022-12-08T23:23:12.539Z,81.33
2022-12-08T23:31:34.714Z,81.27
2022-12-08T23:39:56.240Z,81.28
2022-12-08T23:48:17.684Z,81.20
2022-12-08T23:56:40.792Z,81.16
